Allegre, KY

3:02 PM CDT on October 31, 2014 (GMT -0500)
North Todd | Change Station
CLOSE
Current Station
Personal Weather Station
Location: Elkton, KY
Elevation: 721 ft
Nearby Weather Stations
Active Advisory: Freeze Warning

Elev 721 ft 36.88 °N, 87.17 °W | Updated 11 minutes ago

Overcast
Overcast
44.8 °F
Feels Like 45 °F
N
2.0
Wind Variable Wind from NNW
Gusts 20.0 mph

Today
High -- | Low -- °F
--% Chance of Precip.
Yesterday
High -- | Low -- °F
Precip. -- in
7:11 AM 5:52 PM
First Quarter, 58% visible
Pressure 30.09 in
Visibility 8.0 miles
Clouds Scattered Clouds 4400 ft
Mostly Cloudy 5500 ft
Windchill 45 °F
Dew Point 36 °F
Humidity 70%
Rainfall 0.05 in
Snow Depth Not available.
UV 2 out of 12
Pollen .30 out of 12
Air Quality Not available.
Flu Activity Not available.
METAR KHOP 311958Z AUTO 33013G23KT 8SM SCT044 BKN055 08/M01 A3008 RMK AO2 DZE1912 SLP189 P0000 T00801014

More Conditions Fewer Conditions

Pressure 30.09 in
Visibility 8.0 miles
Clouds Scattered Clouds 4400 ft
Mostly Cloudy 5500 ft
Windchill 45 °F
Dew Point 36 °F
Humidity 70%
Rainfall 0.05 in
Snow Depth Not available.
UV 2 out of 12
Pollen .30 out of 12
Air Quality Not available.
Flu Activity Not available.
METAR KHOP 311958Z AUTO 33013G23KT 8SM SCT044 BKN055 08/M01 A3008 RMK AO2 DZE1912 SLP189 P0000 T00801014

More Conditions Fewer Conditions

10-Day Weather Forecast

Almanac

Astronomy

Oct. 31, 2014 Rise Set
Actual Time
Civil Twilight
Nautical Twilight
Astronomical Twilight
Moon
Length of Visible Light
Length of Day
Tomorrow will be .
, % of the Moon is Illuminated

Today's Extremes

State Highs State Lows

Community

WunderPhotos

Upload Photos

1,766,717 photos uploaded!

WunderBlogs® & News

Nearby

Air Quality

  Air Quality AQ Index Pollutant
Not available.

Snow Depth

Station Depth Elevation

Earthquake Activity

City Distance Mag. Time & Date
Minimum magnitude displayed is 2.5.

Coastal Water Temperatures

Place Temperature

Nearby Weather Stations